Time;durP1;ratioP1;P1;durP2;ratioP2;P2;SDS_P1;SDS_P2;PMS_P1;PMS_P2;Temp;Humidity;BMP_temperature;BMP_pressure;BME280_temperature;BME280_humidity;BME280_pressure;Samples;Min_cycle;Max_cycle;Signal;HPM_P1;HPM_P2
2022/01/03 00:00:37;;;;;;;4.65;2.88;;;;;;;;;;4806501;29;20104;-65
2022/01/03 00:03:12;;;;;;;3.92;1.90;;;;;;;;;;4876007;29;20057;-64
2022/01/03 00:05:42;;;;;;;3.58;2.00;;;;;;;;;;4844189;29;20441;-68
2022/01/03 00:08:12;;;;;;;5.93;2.22;;;;;;;;;;4810408;29;20061;-69
2022/01/03 00:10:43;;;;;;;3.92;2.60;;;;;;;;;;4806235;29;20075;-69
2022/01/03 00:13:14;;;;;;;5.25;2.38;;;;;;;;;;4837696;29;20053;-73
2022/01/03 00:15:44;;;;;;;5.30;2.03;;;;;;;;;;4871544;29;20480;-66
2022/01/03 00:18:15;;;;;;;3.63;2.40;;;;;;;;;;4860538;29;20060;-67
2022/01/03 00:20:58;;;;;;;5.85;2.20;;;;;;;;;;4876497;29;20068;-69
2022/01/03 00:23:32;;;;;;;4.00;2.15;;;;;;;;;;4875679;29;20049;-68
2022/01/03 00:26:04;;;;;;;6.10;2.65;;;;;;;;;;4876560;29;20517;-68
2022/01/03 00:28:48;;;;;;;3.90;2.90;;;;;;;;;;4913282;29;20063;-69
2022/01/03 00:31:19;;;;;;;5.47;2.55;;;;;;;;;;4945739;28;20059;-65
2022/01/03 00:33:54;;;;;;;6.50;2.55;;;;;;;;;;4907646;29;20072;-65
2022/01/03 00:36:29;;;;;;;3.15;2.50;;;;;;;;;;4890692;29;20053;-67
2022/01/03 00:38:59;;;;;;;4.70;2.58;;;;;;;;;;4879400;29;20060;-64
2022/01/03 00:41:30;;;;;;;4.43;2.67;;;;;;;;;;4905687;29;20064;-65
2022/01/03 00:44:00;;;;;;;9.23;2.40;;;;;;;;;;4910696;29;20055;-63
2022/01/03 00:46:32;;;;;;;5.55;2.65;;;;;;;;;;4913081;29;20064;-63
2022/01/03 00:49:04;;;;;;;4.45;2.72;;;;;;;;;;4900451;29;20060;-65
2022/01/03 00:51:35;;;;;;;;;;;;;;;;;;4894806;29;20089;-64
2022/01/03 00:54:05;;;;;;;4.03;2.45;;;;;;;;;;4875722;29;20371;-65
2022/01/03 00:56:37;;;;;;;7.70;2.42;;;;;;;;;;4875668;29;20193;-66
2022/01/03 00:59:22;;;;;;;5.07;2.75;;;;;;;;;;4875482;29;20053;-64
2022/01/03 01:01:55;;;;;;;4.53;2.85;;;;;;;;;;4874362;29;20076;-64
2022/01/03 01:04:26;;;;;;;4.43;2.80;;;;;;;;;;4903113;29;20056;-69
2022/01/03 01:07:00;;;;;;;5.72;2.25;;;;;;;;;;4873481;29;20080;-64
2022/01/03 01:09:33;;;;;;;5.00;2.25;;;;;;;;;;4866161;29;20065;-65
2022/01/03 01:12:07;;;;;;;4.40;2.40;;;;;;;;;;4886571;29;20044;-64
2022/01/03 01:14:39;;;;;;;6.53;3.40;;;;;;;;;;4911238;29;20059;-64
2022/01/03 01:17:11;;;;;;;5.80;3.45;;;;;;;;;;4931477;29;20043;-64
2022/01/03 01:19:46;;;;;;;7.97;3.03;;;;;;;;;;4926484;29;20475;-66
2022/01/03 01:22:20;;;;;;;6.72;3.25;;;;;;;;;;4881249;29;20042;-67
2022/01/03 01:25:23;;;;;;;9.70;3.28;;;;;;;;;;4875082;29;20540;-66
2022/01/03 01:27:56;;;;;;;5.82;3.22;;;;;;;;;;4864156;29;20065;-66
2022/01/03 01:30:29;;;;;;;5.68;3.78;;;;;;;;;;4871733;29;20058;-64
2022/01/03 01:33:08;;;;;;;8.43;3.85;;;;;;;;;;4893324;29;20052;-64
2022/01/03 01:35:52;;;;;;;6.07;3.63;;;;;;;;;;4896695;29;20048;-65
2022/01/03 01:38:34;;;;;;;7.35;3.83;;;;;;;;;;4894702;29;20052;-64
2022/01/03 01:41:08;;;;;;;7.13;3.10;;;;;;;;;;4914992;29;20052;-64
2022/01/03 01:43:49;;;;;;;6.88;3.53;;;;;;;;;;4944890;29;20055;-64
2022/01/03 01:46:22;;;;;;;5.88;3.15;;;;;;;;;;4950813;29;20059;-64
2022/01/03 01:49:05;;;;;;;;;;;;;;;;;;4912745;29;20053;-66
2022/01/03 01:51:38;;;;;;;5.57;3.97;;;;;;;;;;4953238;28;19941;-67
2022/01/03 01:54:15;;;;;;;7.20;3.92;;;;;;;;;;4917215;29;20511;-65
2022/01/03 01:57:18;;;;;;;8.45;3.88;;;;;;;;;;4897036;29;20056;-68
2022/01/03 02:00:02;;;;;;;5.63;3.50;;;;;;;;;;4927069;29;20056;-64
2022/01/03 02:03:02;;;;;;;7.47;4.05;;;;;;;;;;4908088;29;20183;-71
2022/01/03 02:05:43;;;;;;;6.85;3.90;;;;;;;;;;4881915;29;20064;-65
2022/01/03 02:08:20;;;;;;;8.77;4.03;;;;;;;;;;4875128;29;20497;-69
2022/01/03 02:11:19;;;;;;;7.72;4.13;;;;;;;;;;4893345;29;20053;-64
2022/01/03 02:13:53;;;;;;;6.97;3.85;;;;;;;;;;4883653;29;20529;-65
2022/01/03 02:16:24;;;;;;;7.40;3.78;;;;;;;;;;4908836;29;20052;-67
2022/01/03 02:18:57;;;;;;;6.00;3.58;;;;;;;;;;4893430;29;20068;-65
2022/01/03 02:21:28;;;;;;;10.15;4.32;;;;;;;;;;4921640;29;20400;-65
2022/01/03 02:23:59;;;;;;;5.90;4.15;;;;;;;;;;4950073;29;20947;-70
2022/01/03 02:26:31;;;;;;;8.75;4.18;;;;;;;;;;4941168;29;20052;-67
2022/01/03 02:29:01;;;;;;;9.00;3.97;;;;;;;;;;4927484;29;20063;-64
2022/01/03 02:31:34;;;;;;;7.05;4.15;;;;;;;;;;4922546;29;20051;-65
2022/01/03 02:34:06;;;;;;;9.05;4.95;;;;;;;;;;4915350;29;20044;-66
2022/01/03 02:36:42;;;;;;;8.68;5.65;;;;;;;;;;4909651;29;20056;-65
2022/01/03 02:39:14;;;;;;;6.80;5.35;;;;;;;;;;4884147;29;20061;-65
2022/01/03 02:41:45;;;;;;;8.30;5.22;;;;;;;;;;4886652;29;20056;-67
2022/01/03 02:44:19;;;;;;;9.38;5.28;;;;;;;;;;4886366;29;20061;-69
2022/01/03 02:46:50;;;;;;;8.15;4.78;;;;;;;;;;4888755;29;20565;-68
2022/01/03 02:49:20;;;;;;;7.70;4.45;;;;;;;;;;4874330;29;20204;-66
2022/01/03 02:51:51;;;;;;;7.68;4.82;;;;;;;;;;4870843;29;20057;-67
2022/01/03 02:54:23;;;;;;;7.55;4.22;;;;;;;;;;4869687;29;20042;-65
2022/01/03 02:56:54;;;;;;;9.07;4.13;;;;;;;;;;4859292;29;20061;-64
2022/01/03 02:59:25;;;;;;;11.98;4.32;;;;;;;;;;4858956;29;20781;-66
2022/01/03 03:01:57;;;;;;;10.80;4.72;;;;;;;;;;4817849;29;20129;-68
2022/01/03 03:04:28;;;;;;;9.00;4.57;;;;;;;;;;4856203;29;20079;-66
2022/01/03 03:06:59;;;;;;;7.07;4.72;;;;;;;;;;4881646;29;20053;-67
2022/01/03 03:09:29;;;;;;;8.18;4.35;;;;;;;;;;4868857;29;20430;-67
2022/01/03 03:12:00;;;;;;;7.75;4.03;;;;;;;;;;4878034;29;20068;-66
2022/01/03 03:14:32;;;;;;;8.65;4.65;;;;;;;;;;4877442;29;20163;-66
2022/01/03 03:17:03;;;;;;;9.05;4.43;;;;;;;;;;4878059;29;20072;-65
2022/01/03 03:19:48;;;;;;;7.43;3.67;;;;;;;;;;4877555;29;20053;-65
2022/01/03 03:22:19;;;;;;;8.20;3.88;;;;;;;;;;4877673;29;20068;-65
2022/01/03 03:24:50;;;;;;;8.27;4.32;;;;;;;;;;4877509;29;20421;-68
2022/01/03 03:27:21;;;;;;;7.13;4.35;;;;;;;;;;4877008;29;20045;-66
2022/01/03 03:30:25;;;;;;;6.78;4.20;;;;;;;;;;4858961;29;20057;-66
2022/01/03 03:33:01;;;;;;;6.53;3.85;;;;;;;;;;4870949;29;20052;-72
2022/01/03 03:35:33;;;;;;;6.82;5.07;;;;;;;;;;4860236;29;20053;-67
2022/01/03 03:38:04;;;;;;;8.98;5.05;;;;;;;;;;4858497;29;20061;-66
2022/01/03 03:40:34;;;;;;;9.02;4.55;;;;;;;;;;4862232;29;20055;-67
2022/01/03 03:43:05;;;;;;;7.15;4.13;;;;;;;;;;4893397;29;20064;-67
2022/01/03 03:45:36;;;;;;;8.55;5.05;;;;;;;;;;4876781;29;20521;-66
2022/01/03 03:48:08;;;;;;;10.13;5.03;;;;;;;;;;4827254;29;20171;-67
2022/01/03 03:50:39;;;;;;;11.05;4.90;;;;;;;;;;4858171;29;20054;-66
2022/01/03 03:53:09;;;;;;;6.95;4.90;;;;;;;;;;4858192;29;20395;-66
2022/01/03 03:55:40;;;;;;;8.45;4.72;;;;;;;;;;4858357;29;20250;-66
2022/01/03 03:58:13;;;;;;;9.68;5.10;;;;;;;;;;4825715;29;20055;-68
2022/01/03 04:00:44;;;;;;;7.78;4.88;;;;;;;;;;4858370;29;20080;-67
2022/01/03 04:03:37;;;;;;;8.00;4.32;;;;;;;;;;4804121;29;20071;-67
2022/01/03 04:06:09;;;;;;;10.65;4.55;;;;;;;;;;4838743;29;20069;-67
2022/01/03 04:08:39;;;;;;;9.18;4.43;;;;;;;;;;4806495;29;20071;-67
2022/01/03 04:11:09;;;;;;;8.75;5.00;;;;;;;;;;4806040;29;20053;-67
2022/01/03 04:13:40;;;;;;;10.55;4.78;;;;;;;;;;4809032;29;20062;-68
2022/01/03 04:16:12;;;;;;;9.15;4.97;;;;;;;;;;4797523;29;20078;-67
2022/01/03 04:18:43;;;;;;;11.65;4.53;;;;;;;;;;4820900;29;20050;-67
2022/01/03 04:21:13;;;;;;;9.68;4.50;;;;;;;;;;4827658;29;20054;-68
2022/01/03 04:23:45;;;;;;;5.93;4.05;;;;;;;;;;4839092;29;20060;-67
2022/01/03 04:26:16;;;;;;;7.10;3.90;;;;;;;;;;4839013;29;20178;-67
2022/01/03 04:28:47;;;;;;;9.15;4.07;;;;;;;;;;4845296;29;20050;-70
2022/01/03 04:31:18;;;;;;;7.80;3.63;;;;;;;;;;4837275;29;20073;-68
2022/01/03 04:33:49;;;;;;;6.05;3.92;;;;;;;;;;4875963;29;20049;-67
2022/01/03 04:36:19;;;;;;;10.13;3.85;;;;;;;;;;4894612;29;20048;-66
2022/01/03 04:38:50;;;;;;;8.90;4.82;;;;;;;;;;4867661;29;20069;-67
2022/01/03 04:41:21;;;;;;;7.65;4.68;;;;;;;;;;4814072;29;20065;-66
2022/01/03 04:43:52;;;;;;;8.13;4.32;;;;;;;;;;4832668;29;20062;-68
2022/01/03 04:46:23;;;;;;;7.68;4.30;;;;;;;;;;4812187;29;20474;-69
2022/01/03 04:48:53;;;;;;;9.45;4.60;;;;;;;;;;4875462;29;20465;-69
2022/01/03 04:51:24;;;;;;;5.97;3.45;;;;;;;;;;4826722;29;20061;-67
2022/01/03 04:53:55;;;;;;;8.27;3.10;;;;;;;;;;4875177;29;20555;-67
2022/01/03 04:56:28;;;;;;;6.82;2.88;;;;;;;;;;4856709;29;20057;-69
2022/01/03 04:58:58;;;;;;;5.72;3.63;;;;;;;;;;4856982;29;20049;-67
2022/01/03 05:01:29;;;;;;;5.57;3.70;;;;;;;;;;4847547;29;20065;-71
2022/01/03 05:04:00;;;;;;;5.72;3.15;;;;;;;;;;4856795;29;20054;-67
2022/01/03 05:06:31;;;;;;;5.38;2.95;;;;;;;;;;4868835;29;20054;-68
2022/01/03 05:09:01;;;;;;;5.95;3.80;;;;;;;;;;4875000;29;20056;-64
2022/01/03 05:11:31;;;;;;;6.43;2.85;;;;;;;;;;4875384;29;20091;-67
2022/01/03 05:14:02;;;;;;;6.82;3.58;;;;;;;;;;4881266;29;20058;-67
2022/01/03 05:16:33;;;;;;;3.67;2.08;;;;;;;;;;4847820;29;20062;-66
2022/01/03 05:19:03;;;;;;;6.32;3.10;;;;;;;;;;4878926;29;20050;-69
2022/01/03 05:21:33;;;;;;;4.90;2.55;;;;;;;;;;4875398;29;20407;-66
2022/01/03 05:24:05;;;;;;;6.13;3.28;;;;;;;;;;4875559;29;20425;-68
2022/01/03 05:26:36;;;;;;;8.40;3.40;;;;;;;;;;4883639;29;20064;-68
2022/01/03 05:29:07;;;;;;;7.68;3.25;;;;;;;;;;4859441;29;20505;-67
2022/01/03 05:31:37;;;;;;;9.20;2.83;;;;;;;;;;4881438;29;20513;-67
2022/01/03 05:34:08;;;;;;;6.80;2.85;;;;;;;;;;4903061;29;20546;-65
2022/01/03 05:36:39;;;;;;;5.90;3.15;;;;;;;;;;4855585;29;20067;-68
2022/01/03 05:39:10;;;;;;;6.57;2.97;;;;;;;;;;4918519;29;20468;-68
2022/01/03 05:41:41;;;;;;;9.43;3.10;;;;;;;;;;4876054;29;20049;-67
2022/01/03 05:44:12;;;;;;;7.28;3.55;;;;;;;;;;4856651;29;20498;-68
2022/01/03 05:46:43;;;;;;;4.82;2.75;;;;;;;;;;4875387;29;20065;-68
2022/01/03 05:49:13;;;;;;;5.05;2.35;;;;;;;;;;4865818;29;20056;-68
2022/01/03 05:51:44;;;;;;;6.20;3.38;;;;;;;;;;4893635;29;20118;-66
2022/01/03 05:54:14;;;;;;;6.53;2.33;;;;;;;;;;4893837;29;20065;-67
2022/01/03 05:56:45;;;;;;;6.07;2.50;;;;;;;;;;4875312;29;20053;-67
2022/01/03 05:59:16;;;;;;;6.20;3.53;;;;;;;;;;4912314;29;20138;-70
2022/01/03 06:01:47;;;;;;;5.53;2.92;;;;;;;;;;4911495;29;20052;-67
2022/01/03 06:04:35;;;;;;;7.57;3.50;;;;;;;;;;4922295;29;20066;-68
2022/01/03 06:07:08;;;;;;;10.77;3.53;;;;;;;;;;4919851;29;20233;-68
2022/01/03 06:09:43;;;;;;;6.13;3.20;;;;;;;;;;4918376;29;20063;-67
2022/01/03 06:12:16;;;;;;;6.53;2.65;;;;;;;;;;4887777;29;20053;-67
2022/01/03 06:14:55;;;;;;;8.80;3.80;;;;;;;;;;4889168;29;20573;-69
2022/01/03 06:17:25;;;;;;;6.85;3.38;;;;;;;;;;4912198;29;20413;-68
2022/01/03 06:19:57;;;;;;;6.53;3.95;;;;;;;;;;4892974;29;20058;-68
2022/01/03 06:22:27;;;;;;;5.78;3.83;;;;;;;;;;4874590;29;20061;-69
2022/01/03 06:25:00;;;;;;;8.45;3.45;;;;;;;;;;4860302;29;20054;-68
2022/01/03 06:27:31;;;;;;;7.40;3.92;;;;;;;;;;4879381;29;20628;-67
2022/01/03 06:30:03;;;;;;;6.65;3.90;;;;;;;;;;4907282;29;20059;-68
2022/01/03 06:32:35;;;;;;;6.13;3.28;;;;;;;;;;4911859;29;20527;-68
2022/01/03 06:35:07;;;;;;;7.45;3.97;;;;;;;;;;4893002;29;20048;-67
2022/01/03 06:37:38;;;;;;;9.77;4.22;;;;;;;;;;4878837;29;20136;-68
2022/01/03 06:40:19;;;;;;;7.22;3.28;;;;;;;;;;4902828;29;20057;-69
2022/01/03 06:42:49;;;;;;;5.47;3.13;;;;;;;;;;4874524;29;20057;-68
2022/01/03 06:45:21;;;;;;;7.35;3.17;;;;;;;;;;4857156;29;20065;-68
2022/01/03 06:47:59;;;;;;;7.32;3.03;;;;;;;;;;4789450;29;20102;-68
2022/01/03 06:50:34;;;;;;;5.97;2.83;;;;;;;;;;4819790;29;20051;-66
2022/01/03 06:53:05;;;;;;;6.25;3.38;;;;;;;;;;4814568;29;20065;-67
2022/01/03 06:55:39;;;;;;;4.97;2.63;;;;;;;;;;4842271;29;20060;-68
2022/01/03 06:58:10;;;;;;;7.88;3.10;;;;;;;;;;4855480;29;20050;-68
2022/01/03 07:00:40;;;;;;;4.97;2.90;;;;;;;;;;4855775;29;20058;-69
2022/01/03 07:03:10;;;;;;;4.75;3.20;;;;;;;;;;4874491;29;20064;-67
2022/01/03 07:05:40;;;;;;;7.07;2.63;;;;;;;;;;4843334;29;20068;-67
2022/01/03 07:08:11;;;;;;;6.47;2.97;;;;;;;;;;4874589;29;20065;-67
2022/01/03 07:10:42;;;;;;;6.80;2.42;;;;;;;;;;4868505;29;20065;-66
2022/01/03 07:13:12;;;;;;;5.45;2.78;;;;;;;;;;4839000;29;20550;-74
2022/01/03 07:21:19;;;;;;;7.07;3.60;;;;;;;;;;4877862;29;20057;-67
2022/01/03 07:23:49;;;;;;;4.82;2.70;;;;;;;;;;4861854;29;20053;-68
2022/01/03 07:26:20;;;;;;;8.32;3.20;;;;;;;;;;4881734;29;20204;-69
2022/01/03 07:28:50;;;;;;;8.00;2.80;;;;;;;;;;4896038;29;20056;-69
2022/01/03 07:31:22;;;;;;;5.68;2.63;;;;;;;;;;4880469;29;20068;-68
2022/01/03 07:33:52;;;;;;;4.80;3.15;;;;;;;;;;4881850;29;20406;-68
2022/01/03 07:36:22;;;;;;;6.43;3.50;;;;;;;;;;4904390;29;20060;-67
2022/01/03 07:38:53;;;;;;;6.32;3.58;;;;;;;;;;4901655;29;20059;-68
2022/01/03 07:41:23;;;;;;;4.05;2.50;;;;;;;;;;4928591;29;20056;-70
2022/01/03 07:43:54;;;;;;;5.90;3.10;;;;;;;;;;4934117;29;20083;-67
2022/01/03 07:46:24;;;;;;;6.45;2.40;;;;;;;;;;4934289;29;20052;-68
2022/01/03 07:48:55;;;;;;;6.18;2.90;;;;;;;;;;4952449;29;20059;-68
2022/01/03 07:51:26;;;;;;;5.18;2.50;;;;;;;;;;4914789;29;20059;-70
2022/01/03 07:53:57;;;;;;;6.43;2.20;;;;;;;;;;4897590;29;20051;-67
2022/01/03 07:56:28;;;;;;;7.07;3.30;;;;;;;;;;4933607;29;20047;-67
2022/01/03 07:58:58;;;;;;;7.15;3.00;;;;;;;;;;4917834;29;20058;-67
2022/01/03 08:01:28;;;;;;;5.00;3.00;;;;;;;;;;4933893;29;20056;-67
2022/01/03 08:03:59;;;;;;;5.22;3.03;;;;;;;;;;4917777;29;20059;-67
2022/01/03 08:06:46;;;;;;;4.82;2.08;;;;;;;;;;4945193;29;20105;-67
2022/01/03 08:09:16;;;;;;;4.40;2.53;;;;;;;;;;4952674;29;20051;-66
2022/01/03 08:11:46;;;;;;;4.60;2.28;;;;;;;;;;4933536;29;20058;-67
2022/01/03 08:14:16;;;;;;;5.88;2.10;;;;;;;;;;4933023;29;20059;-67
2022/01/03 08:16:47;;;;;;;5.78;1.92;;;;;;;;;;4917529;29;20059;-67
2022/01/03 08:19:20;;;;;;;8.10;2.35;;;;;;;;;;4914277;29;20048;-68
2022/01/03 08:21:51;;;;;;;4.28;2.10;;;;;;;;;;4898259;29;20059;-68
2022/01/03 08:24:21;;;;;;;4.32;2.70;;;;;;;;;;4894143;29;20068;-68
2022/01/03 08:26:51;;;;;;;5.53;2.55;;;;;;;;;;4894673;29;20056;-67
2022/01/03 08:29:22;;;;;;;6.95;2.20;;;;;;;;;;4895437;29;20061;-68
2022/01/03 08:31:52;;;;;;;7.10;2.42;;;;;;;;;;4928955;29;20052;-67
2022/01/03 08:34:23;;;;;;;4.75;1.80;;;;;;;;;;4902532;29;20531;-66
2022/01/03 08:36:53;;;;;;;4.93;2.60;;;;;;;;;;4894495;29;20056;-67
2022/01/03 08:39:23;;;;;;;3.75;2.00;;;;;;;;;;4863750;29;20052;-67
2022/01/03 08:41:53;;;;;;;6.57;2.80;;;;;;;;;;4910632;29;20052;-68
2022/01/03 08:44:24;;;;;;;5.68;2.05;;;;;;;;;;4913392;29;20056;-68
2022/01/03 08:46:54;;;;;;;7.60;2.83;;;;;;;;;;4915809;29;20060;-68
2022/01/03 08:49:24;;;;;;;7.82;3.22;;;;;;;;;;4933889;28;20404;-72
2022/01/03 08:51:54;;;;;;;4.38;2.33;;;;;;;;;;4949379;28;20433;-67
2022/01/03 08:54:25;;;;;;;5.13;2.60;;;;;;;;;;4917738;28;20052;-68
2022/01/03 08:56:56;;;;;;;4.57;2.60;;;;;;;;;;4965906;28;20053;-67
2022/01/03 08:59:26;;;;;;;4.95;2.25;;;;;;;;;;4991033;28;20065;-67
2022/01/03 09:01:57;;;;;;;4.07;1.80;;;;;;;;;;5030105;28;20054;-66
2022/01/03 09:04:27;;;;;;;4.72;2.03;;;;;;;;;;5009272;28;20057;-64
2022/01/03 09:06:59;;;;;;;3.53;1.70;;;;;;;;;;5009728;28;20061;-66
2022/01/03 09:09:30;;;;;;;7.47;2.05;;;;;;;;;;4951842;28;20101;-68
2022/01/03 09:12:03;;;;;;;4.07;1.63;;;;;;;;;;4932634;29;20067;-68
2022/01/03 09:14:35;;;;;;;5.50;1.85;;;;;;;;;;4932389;29;20542;-70
2022/01/03 09:17:05;;;;;;;5.43;1.75;;;;;;;;;;4932576;29;20056;-67
2022/01/03 09:19:35;;;;;;;6.43;2.08;;;;;;;;;;4921537;29;20067;-67
2022/01/03 09:22:20;;;;;;;4.25;2.30;;;;;;;;;;4915829;29;20070;-74
2022/01/03 09:30:13;;;;;;;6.60;1.90;;;;;;;;;;4912591;29;20048;-69
2022/01/03 09:32:44;;;;;;;3.47;2.17;;;;;;;;;;4928452;29;20060;-63
2022/01/03 09:35:15;;;;;;;9.15;2.33;;;;;;;;;;4960958;28;20438;-63
2022/01/03 09:37:46;;;;;;;17.67;2.70;;;;;;;;;;4938181;28;20051;-64
2022/01/03 09:40:16;;;;;;;11.98;2.92;;;;;;;;;;4970394;28;20059;-64
2022/01/03 09:42:50;;;;;;;12.63;3.53;;;;;;;;;;4955442;28;20062;-65
2022/01/03 09:45:21;;;;;;;8.93;2.95;;;;;;;;;;4957212;28;20066;-66
2022/01/03 09:47:54;;;;;;;14.70;2.60;;;;;;;;;;4990775;28;20446;-66
2022/01/03 09:50:24;;;;;;;12.45;3.10;;;;;;;;;;4995964;28;20142;-64
2022/01/03 09:52:56;;;;;;;14.02;3.72;;;;;;;;;;4970032;28;20054;-65
2022/01/03 09:55:27;;;;;;;11.18;3.30;;;;;;;;;;4970181;28;20055;-65
2022/01/03 09:57:57;;;;;;;9.30;3.55;;;;;;;;;;4974742;28;20057;-71
2022/01/03 10:00:28;;;;;;;7.72;2.65;;;;;;;;;;4972749;28;20055;-69
2022/01/03 10:02:59;;;;;;;7.80;3.30;;;;;;;;;;4970384;28;20051;-67
2022/01/03 10:05:30;;;;;;;9.35;4.90;;;;;;;;;;4967149;28;20090;-68
2022/01/03 10:08:00;;;;;;;13.15;5.80;;;;;;;;;;4950698;29;20063;-70
2022/01/03 10:10:36;;;;;;;7.97;4.22;;;;;;;;;;4950777;29;20055;-67
2022/01/03 10:13:07;;;;;;;7.13;3.40;;;;;;;;;;4931319;29;20055;-68
2022/01/03 10:15:38;;;;;;;10.30;3.40;;;;;;;;;;4916056;29;20051;-68
2022/01/03 10:18:19;;;;;;;14.63;5.68;;;;;;;;;;4903795;28;20412;-69
2022/01/03 10:20:50;;;;;;;6.30;2.90;;;;;;;;;;4969954;28;20054;-67
2022/01/03 10:23:20;;;;;;;8.20;3.63;;;;;;;;;;4954320;28;20066;-68
2022/01/03 10:25:51;;;;;;;7.80;3.53;;;;;;;;;;4969603;28;20400;-68
2022/01/03 10:28:28;;;;;;;6.63;2.50;;;;;;;;;;4969657;28;20050;-68
2022/01/03 10:30:59;;;;;;;5.95;3.40;;;;;;;;;;4969595;28;20077;-68
2022/01/03 10:33:29;;;;;;;7.93;2.90;;;;;;;;;;4969879;28;20054;-69
2022/01/03 10:35:59;;;;;;;6.35;2.80;;;;;;;;;;4969613;28;20504;-68
2022/01/03 10:38:43;;;;;;;6.25;2.67;;;;;;;;;;4950312;28;20101;-69
2022/01/03 10:41:19;;;;;;;6.53;2.70;;;;;;;;;;4950116;29;20064;-70
2022/01/03 10:43:54;;;;;;;4.68;2.53;;;;;;;;;;4950391;29;20082;-74
2022/01/03 10:46:32;;;;;;;6.93;2.15;;;;;;;;;;4950398;29;20058;-68
2022/01/03 10:49:15;;;;;;;8.73;3.78;;;;;;;;;;4937219;29;20070;-71
2022/01/03 10:51:49;;;;;;;5.55;2.78;;;;;;;;;;4974421;28;20061;-68
2022/01/03 10:54:19;;;;;;;6.60;3.13;;;;;;;;;;5012577;28;20124;-67
2022/01/03 10:56:51;;;;;;;11.52;3.35;;;;;;;;;;4991039;28;20043;-67
2022/01/03 10:59:25;;;;;;;7.22;4.07;;;;;;;;;;4976315;28;20054;-68
2022/01/03 11:02:05;;;;;;;8.32;4.63;;;;;;;;;;4934357;29;20043;-68
2022/01/03 11:04:50;;;;;;;7.70;4.75;;;;;;;;;;4934803;29;20467;-66
2022/01/03 11:13:08;;;;;;;12.52;3.50;;;;;;;;;;4924962;29;20052;-69
2022/01/03 11:16:02;;;;;;;5.72;3.20;;;;;;;;;;4908543;29;20064;-70
2022/01/03 11:18:44;;;;;;;7.47;2.75;;;;;;;;;;4935323;29;20462;-69
2022/01/03 11:21:24;;;;;;;5.03;2.63;;;;;;;;;;4924394;29;20052;-69
2022/01/03 11:24:00;;;;;;;7.15;2.80;;;;;;;;;;4918613;29;20064;-69
2022/01/03 11:26:33;;;;;;;6.13;2.78;;;;;;;;;;4923051;29;20048;-68
2022/01/03 11:29:04;;;;;;;10.02;2.50;;;;;;;;;;4882434;29;20061;-67
2022/01/03 11:31:39;;;;;;;7.25;2.78;;;;;;;;;;4877574;29;20061;-67
2022/01/03 11:34:12;;;;;;;6.97;2.80;;;;;;;;;;4866276;29;20068;-67
2022/01/03 11:37:06;;;;;;;5.20;2.83;;;;;;;;;;4877595;29;20640;-69
2022/01/03 11:39:37;;;;;;;6.25;3.33;;;;;;;;;;4886936;29;20063;-67
2022/01/03 11:42:11;;;;;;;4.63;2.38;;;;;;;;;;4896615;29;20059;-69
2022/01/03 11:44:42;;;;;;;5.85;2.50;;;;;;;;;;4895766;29;20063;-69
2022/01/03 11:47:16;;;;;;;5.60;2.30;;;;;;;;;;4896257;29;20064;-69
2022/01/03 11:49:46;;;;;;;4.60;2.90;;;;;;;;;;4899564;29;20059;-70
2022/01/03 11:52:18;;;;;;;6.57;2.53;;;;;;;;;;4902819;29;20083;-70
2022/01/03 11:54:52;;;;;;;5.78;2.67;;;;;;;;;;4914366;29;20052;-67
2022/01/03 11:57:40;;;;;;;6.25;2.90;;;;;;;;;;4933171;29;20543;-69
2022/01/03 12:05:56;;;;;;;;;;;;;;;;;;4959564;28;20054;-68
2022/01/03 12:08:33;;;;;;;5.57;2.47;;;;;;;;;;4971740;28;19928;-69
2022/01/03 12:11:18;;;;;;;4.97;2.40;;;;;;;;;;4939849;28;20086;-70
2022/01/03 12:13:53;;;;;;;5.32;2.75;;;;;;;;;;4964477;28;20067;-69
2022/01/03 12:17:03;;;;;;;5.80;2.50;;;;;;;;;;4952148;29;20559;-69
2022/01/03 12:19:39;;;;;;;6.32;2.88;;;;;;;;;;4952668;29;20079;-68
2022/01/03 12:22:14;;;;;;;3.95;2.20;;;;;;;;;;4952562;29;20431;-68
2022/01/03 12:25:03;;;;;;;9.77;3.05;;;;;;;;;;4936778;29;20059;-69
2022/01/03 12:27:39;;;;;;;5.50;1.95;;;;;;;;;;4904657;29;20063;-69
2022/01/03 12:30:15;;;;;;;4.35;1.70;;;;;;;;;;4952628;28;20062;-68
2022/01/03 12:33:14;;;;;;;6.00;2.08;;;;;;;;;;4951986;29;20067;-69
2022/01/03 12:35:47;;;;;;;4.85;2.65;;;;;;;;;;4895284;29;20056;-67
2022/01/03 12:38:22;;;;;;;5.40;3.35;;;;;;;;;;4895038;29;20071;-68
2022/01/03 12:40:56;;;;;;;5.07;2.13;;;;;;;;;;4895254;29;20061;-67
2022/01/03 12:43:39;;;;;;;4.55;2.38;;;;;;;;;;4879953;29;20049;-68
2022/01/03 12:46:20;;;;;;;4.75;2.78;;;;;;;;;;4904459;29;20063;-67
2022/01/03 12:48:55;;;;;;;4.78;2.53;;;;;;;;;;4913154;29;20044;-71
2022/01/03 12:51:35;;;;;;;5.43;3.05;;;;;;;;;;4904361;29;20056;-67
2022/01/03 12:54:07;;;;;;;8.20;3.22;;;;;;;;;;4913918;29;20063;-68
2022/01/03 12:56:39;;;;;;;6.35;3.08;;;;;;;;;;4896998;29;20057;-69
2022/01/03 12:59:12;;;;;;;4.88;2.35;;;;;;;;;;4894332;29;20537;-68
2022/01/03 13:01:43;;;;;;;7.30;2.75;;;;;;;;;;4876560;29;20094;-68
2022/01/03 13:04:21;;;;;;;6.65;2.60;;;;;;;;;;4897793;29;20471;-70
2022/01/03 13:06:59;;;;;;;6.35;2.75;;;;;;;;;;4902738;29;20067;-68
2022/01/03 13:09:30;;;;;;;7.43;3.08;;;;;;;;;;4845986;29;20053;-68
2022/01/03 13:12:05;;;;;;;4.85;2.30;;;;;;;;;;4890529;29;20063;-70
2022/01/03 13:14:35;;;;;;;6.10;2.75;;;;;;;;;;4909265;29;20235;-67
2022/01/03 13:17:06;;;;;;;6.53;2.78;;;;;;;;;;4875534;29;20052;-68
2022/01/03 13:19:37;;;;;;;4.85;2.35;;;;;;;;;;4875987;29;20052;-68
2022/01/03 13:22:10;;;;;;;4.93;2.45;;;;;;;;;;4844883;29;20084;-69
2022/01/03 13:24:46;;;;;;;6.78;2.30;;;;;;;;;;4856557;29;20061;-68
2022/01/03 13:27:21;;;;;;;6.47;2.50;;;;;;;;;;4860446;29;20390;-69
2022/01/03 13:29:54;;;;;;;12.07;5.32;;;;;;;;;;4875718;29;20057;-67
2022/01/03 13:32:30;;;;;;;10.32;5.00;;;;;;;;;;4823031;29;20088;-66
2022/01/03 13:35:03;;;;;;;8.00;3.22;;;;;;;;;;4853747;29;20061;-69
2022/01/03 13:37:34;;;;;;;9.70;4.43;;;;;;;;;;4856668;29;20052;-67
2022/01/03 13:40:05;;;;;;;8.93;5.30;;;;;;;;;;4886491;29;20064;-67
2022/01/03 13:50:49;;;;;;;7.72;4.53;;;;;;;;;;4874777;29;20049;-67
2022/01/03 13:53:20;;;;;;;7.60;4.07;;;;;;;;;;4893178;29;20065;-66
2022/01/03 13:55:55;;;;;;;7.97;3.63;;;;;;;;;;4911457;29;20052;-66
2022/01/03 13:58:27;;;;;;;5.60;2.85;;;;;;;;;;4913153;29;20625;-68
2022/01/03 14:00:59;;;;;;;6.60;2.83;;;;;;;;;;4931335;29;20058;-67
2022/01/03 14:03:31;;;;;;;8.65;3.03;;;;;;;;;;4950748;29;20076;-66
2022/01/03 14:06:18;;;;;;;8.18;4.20;;;;;;;;;;4893362;29;20045;-69
2022/01/03 14:08:50;;;;;;;6.72;3.30;;;;;;;;;;4863557;29;20064;-67
2022/01/03 14:11:22;;;;;;;6.20;2.90;;;;;;;;;;4945598;29;20078;-66
2022/01/03 14:13:53;;;;;;;5.82;2.97;;;;;;;;;;4934733;29;20047;-66
2022/01/03 14:16:24;;;;;;;6.88;3.15;;;;;;;;;;4932509;29;20067;-66
2022/01/03 14:18:55;;;;;;;4.72;2.40;;;;;;;;;;4931464;29;20052;-69
2022/01/03 14:21:33;;;;;;;6.05;2.95;;;;;;;;;;4931527;29;20070;-69
2022/01/03 14:24:09;;;;;;;6.97;2.53;;;;;;;;;;4953892;29;20062;-66
2022/01/03 14:26:40;;;;;;;5.10;2.42;;;;;;;;;;4919585;29;20059;-67
2022/01/03 14:29:14;;;;;;;5.85;1.92;;;;;;;;;;4916294;29;20108;-72
2022/01/03 14:31:49;;;;;;;3.55;2.13;;;;;;;;;;4916056;29;20060;-67
2022/01/03 14:34:20;;;;;;;4.43;2.05;;;;;;;;;;4916148;29;20056;-66
2022/01/03 14:36:53;;;;;;;6.22;2.50;;;;;;;;;;4916328;29;20107;-69
2022/01/03 14:39:24;;;;;;;;;;;;;;;;;;4904109;29;20425;-71
2022/01/03 14:42:07;;;;;;;4.13;2.03;;;;;;;;;;4934970;29;19930;-68
2022/01/03 14:44:37;;;;;;;7.55;2.88;;;;;;;;;;4968494;28;20043;-67
2022/01/03 14:47:12;;;;;;;5.60;2.78;;;;;;;;;;4988775;28;20061;-71
2022/01/03 14:50:05;;;;;;;6.55;2.45;;;;;;;;;;5011887;28;20473;-67
2022/01/03 14:52:38;;;;;;;9.15;2.40;;;;;;;;;;4983045;28;20062;-68
2022/01/03 14:55:11;;;;;;;4.85;2.33;;;;;;;;;;4991819;28;20062;-71
2022/01/03 14:57:47;;;;;;;3.92;2.20;;;;;;;;;;4943874;28;20497;-70
2022/01/03 15:00:20;;;;;;;3.67;1.90;;;;;;;;;;4968627;28;20055;-68
2022/01/03 15:02:55;;;;;;;6.63;2.50;;;;;;;;;;4990165;28;20055;-70
2022/01/03 15:05:27;;;;;;;5.25;2.08;;;;;;;;;;4984060;28;20050;-70
2022/01/03 15:07:58;;;;;;;4.50;2.50;;;;;;;;;;4923255;28;20063;-68
2022/01/03 15:10:33;;;;;;;4.45;2.40;;;;;;;;;;4990464;28;20046;-67
2022/01/03 15:13:22;;;;;;;5.20;2.53;;;;;;;;;;4957170;28;20057;-67
2022/01/03 15:15:53;;;;;;;6.32;2.03;;;;;;;;;;4972591;28;20047;-69
2022/01/03 15:18:24;;;;;;;3.67;1.90;;;;;;;;;;4972062;28;20051;-68
2022/01/03 15:20:54;;;;;;;4.95;2.83;;;;;;;;;;4955585;28;20050;-67
2022/01/03 15:23:28;;;;;;;6.78;2.05;;;;;;;;;;4953842;28;20583;-70
2022/01/03 15:26:00;;;;;;;4.60;1.85;;;;;;;;;;4937530;28;20415;-67
2022/01/03 15:28:30;;;;;;;4.10;1.95;;;;;;;;;;4953026;29;20065;-68
2022/01/03 15:31:03;;;;;;;4.18;2.03;;;;;;;;;;4961265;28;20534;-69
2022/01/03 15:33:33;;;;;;;7.00;2.90;;;;;;;;;;4918457;29;20052;-69
2022/01/03 15:36:06;;;;;;;4.15;2.25;;;;;;;;;;4948380;28;20077;-71
2022/01/03 15:38:36;;;;;;;5.03;2.20;;;;;;;;;;4940096;29;20059;-68
2022/01/03 15:41:07;;;;;;;5.07;2.10;;;;;;;;;;4941066;29;20498;-68
2022/01/03 15:43:37;;;;;;;4.47;2.30;;;;;;;;;;4936725;29;20068;-67
2022/01/03 15:46:07;;;;;;;4.18;2.10;;;;;;;;;;4934187;29;20068;-67
2022/01/03 15:48:38;;;;;;;3.92;1.90;;;;;;;;;;4917999;29;20071;-68
2022/01/03 15:51:08;;;;;;;3.38;2.00;;;;;;;;;;4933999;29;20096;-67